createdAt,value
2022-08-20T00:02:16.183Z,20.90
2022-08-20T00:07:06.936Z,20.70
2022-08-20T00:11:58.121Z,20.60
2022-08-20T00:16:49.344Z,20.50
2022-08-20T00:21:40.136Z,20.40
2022-08-20T00:26:31.316Z,22.20
2022-08-20T00:31:21.946Z,20.30
2022-08-20T00:36:13.294Z,20.20
2022-08-20T00:41:04.499Z,20.20
2022-08-20T00:45:55.561Z,20.20
2022-08-20T00:50:46.510Z,20.30
2022-08-20T00:55:37.566Z,20.30
2022-08-20T01:00:28.601Z,20.10
2022-08-20T01:05:19.378Z,19.90
2022-08-20T01:10:10.789Z,20.00
2022-08-20T01:15:01.890Z,20.00
2022-08-20T01:19:52.867Z,19.90
2022-08-20T01:24:43.934Z,20.00
2022-08-20T01:29:34.999Z,20.10
2022-08-20T01:34:25.759Z,20.10
2022-08-20T01:39:16.809Z,20.20
2022-08-20T01:44:18.806Z,20.10
2022-08-20T01:48:59.250Z,19.60
2022-08-20T01:53:50.014Z,19.50
2022-08-20T01:58:41.481Z,19.40
2022-08-20T02:03:44.690Z,19.30
2022-08-20T02:08:23.584Z,19.10
2022-08-20T02:13:14.530Z,19.10
2022-08-20T02:18:08.556Z,19.00
2022-08-20T02:22:56.812Z,19.00
2022-08-20T02:27:47.779Z,19.00
2022-08-20T02:32:38.842Z,19.10
2022-08-20T02:37:29.937Z,19.10
2022-08-20T02:42:21.062Z,19.10
2022-08-20T02:47:11.969Z,19.10
2022-08-20T02:52:03.078Z,19.10
2022-08-20T02:56:54.202Z,19.10
2022-08-20T03:01:44.937Z,19.10
2022-08-20T03:06:36.262Z,19.10
2022-08-20T03:11:27.386Z,19.10
2022-08-20T03:16:18.422Z,19.10
2022-08-20T03:21:10.214Z,19.20
2022-08-20T03:26:00.573Z,19.10
2022-08-20T03:30:51.687Z,19.10
2022-08-20T03:35:42.324Z,19.10
2022-08-20T03:40:33.780Z,19.00
2022-08-20T03:45:24.735Z,19.10
2022-08-20T03:50:24.008Z,19.10
2022-08-20T03:55:06.559Z,19.00
2022-08-20T03:59:58.842Z,19.00
2022-08-20T04:04:49.072Z,19.00
2022-08-20T04:09:40.111Z,19.00
2022-08-20T04:14:33.162Z,19.00
2022-08-20T04:19:21.924Z,19.00
2022-08-20T04:24:32.823Z,19.00
2022-08-20T04:29:04.400Z,18.90
2022-08-20T04:33:55.504Z,19.00
2022-08-20T04:38:51.329Z,19.00
2022-08-20T04:43:37.684Z,19.00
2022-08-20T04:48:29.435Z,19.00
2022-08-20T04:53:26.093Z,19.00
2022-08-20T04:58:10.467Z,19.10
2022-08-20T05:03:01.951Z,19.20
2022-08-20T05:07:53.100Z,19.20
2022-08-20T05:12:57.597Z,19.10
2022-08-20T05:17:34.726Z,19.20
2022-08-20T05:22:31.290Z,19.20
2022-08-20T05:27:25.603Z,19.40
2022-08-20T05:32:07.892Z,19.50
2022-08-20T05:36:59.275Z,19.50
2022-08-20T05:41:50.394Z,19.70
2022-08-20T05:46:41.356Z,19.70
2022-08-20T05:51:32.640Z,19.70
2022-08-20T05:56:27.659Z,19.80
2022-08-20T06:01:14.671Z,19.90
2022-08-20T06:06:46.744Z,20.30
2022-08-20T06:10:56.641Z,20.20
2022-08-20T06:15:48.181Z,20.40
2022-08-20T06:20:38.493Z,20.50
2022-08-20T06:25:29.567Z,20.60
2022-08-20T06:30:20.672Z,20.60
2022-08-20T06:35:11.648Z,20.50
2022-08-20T06:40:03.119Z,20.80
2022-08-20T06:44:54.108Z,21.30
2022-08-20T06:49:45.186Z,21.20
2022-08-20T06:54:36.184Z,21.40
2022-08-20T06:59:26.966Z,21.60
2022-08-20T07:04:18.096Z,21.50
2022-08-20T07:09:09.397Z,21.20
2022-08-20T07:14:00.447Z,21.20
2022-08-20T07:18:51.597Z,21.30
2022-08-20T07:23:42.583Z,21.60
2022-08-20T07:28:33.752Z,21.20
2022-08-20T07:33:24.857Z,21.20
2022-08-20T07:38:15.458Z,21.20
2022-08-20T07:43:09.910Z,21.30
2022-08-20T07:47:57.594Z,21.30
2022-08-20T07:52:49.107Z,21.20
2022-08-20T07:57:40.113Z,21.20
2022-08-20T08:02:31.068Z,21.20
2022-08-20T08:07:22.028Z,21.60
2022-08-20T08:08:00.734Z,21.80
2022-08-20T08:12:52.041Z,21.80
2022-08-20T08:17:42.469Z,21.70
2022-08-20T08:22:33.943Z,22.00
2022-08-20T08:27:24.615Z,22.60
2022-08-20T08:32:16.006Z,22.70
2022-08-20T08:37:07.088Z,22.60
2022-08-20T08:41:57.818Z,22.40
2022-08-20T08:46:49.206Z,22.40
2022-08-20T08:51:39.923Z,22.30
2022-08-20T08:56:31.267Z,22.10
2022-08-20T09:01:57.577Z,21.80
2022-08-20T09:06:13.094Z,22.10
2022-08-20T09:11:04.512Z,22.00
2022-08-20T09:15:55.531Z,22.30
2022-08-20T09:20:46.744Z,22.60
2022-08-20T09:25:37.662Z,22.70
2022-08-20T09:30:28.739Z,23.00
2022-08-20T09:35:19.563Z,23.40
2022-08-20T09:40:10.712Z,23.90
2022-08-20T09:45:01.904Z,24.30
2022-08-20T09:49:52.692Z,24.40
2022-08-20T09:54:47.028Z,24.60
2022-08-20T09:59:34.839Z,24.60
2022-08-20T10:04:25.895Z,25.40
2022-08-20T10:09:17.232Z,25.60
2022-08-20T10:14:08.373Z,25.40
2022-08-20T10:18:59.029Z,24.30
2022-08-20T10:23:50.115Z,24.00
2022-08-20T10:28:41.490Z,23.80
2022-08-20T10:33:32.236Z,23.80
2022-08-20T10:38:23.614Z,25.00
2022-08-20T10:43:16.617Z,24.30
2022-08-20T10:48:09.688Z,24.00
2022-08-20T10:52:56.826Z,24.20
2022-08-20T10:57:47.922Z,24.30
2022-08-20T11:02:41.116Z,24.60
2022-08-20T11:07:57.067Z,25.30
2022-08-20T11:12:21.426Z,26.10
2022-08-20T11:17:12.612Z,26.00
2022-08-20T11:22:03.686Z,25.90
2022-08-20T11:26:54.342Z,25.40
2022-08-20T11:31:45.765Z,24.70
2022-08-20T11:36:36.860Z,24.50
2022-08-20T11:41:27.810Z,24.30
2022-08-20T11:46:19.005Z,24.40
2022-08-20T11:51:10.020Z,24.90
2022-08-20T11:56:00.808Z,24.90
2022-08-20T11:59:06.409Z,24.40
2022-08-20T12:03:57.766Z,24.40
2022-08-20T12:08:48.842Z,24.00
2022-08-20T12:13:49.475Z,23.80
2022-08-20T12:18:30.652Z,22.70
2022-08-20T12:23:21.975Z,22.60
2022-08-20T12:28:13.039Z,22.40
2022-08-20T12:33:04.177Z,22.40
2022-08-20T12:37:58.901Z,22.80
2022-08-20T12:42:46.311Z,23.00
2022-08-20T12:47:37.376Z,23.20
2022-08-20T12:52:28.430Z,23.40
2022-08-20T12:57:19.203Z,23.70
2022-08-20T13:02:19.337Z,23.80
2022-08-20T13:07:01.739Z,23.70
2022-08-20T13:11:52.688Z,23.50
2022-08-20T13:16:43.747Z,23.70
2022-08-20T13:21:34.816Z,24.10
2022-08-20T13:26:26.013Z,24.00
2022-08-20T13:31:18.640Z,24.10
2022-08-20T13:34:47.815Z,24.90
2022-08-20T13:39:38.508Z,24.90
2022-08-20T13:44:33.616Z,25.30
2022-08-20T13:49:20.520Z,25.30
2022-08-20T13:54:13.047Z,25.00
2022-08-20T13:59:02.667Z,26.10
2022-08-20T14:03:54.440Z,25.20
2022-08-20T14:08:45.188Z,25.20
2022-08-20T14:13:36.180Z,25.20
2022-08-20T14:18:27.219Z,25.30
2022-08-20T14:23:17.978Z,24.90
2022-08-20T14:28:09.093Z,25.00
2022-08-20T14:33:00.380Z,24.80
2022-08-20T14:37:51.582Z,24.70
2022-08-20T14:42:51.443Z,24.90
2022-08-20T14:46:11.492Z,24.40
2022-08-20T14:51:02.469Z,24.60
2022-08-20T14:55:53.549Z,24.50
2022-08-20T15:00:44.534Z,24.60
2022-08-20T15:05:40.329Z,24.60
2022-08-20T15:10:26.712Z,24.90
2022-08-20T15:15:17.775Z,24.80
2022-08-20T15:20:21.291Z,24.90
2022-08-20T15:24:59.896Z,24.90
2022-08-20T15:29:51.097Z,24.80
2022-08-20T15:34:42.048Z,24.50
2022-08-20T15:39:32.802Z,24.60
2022-08-20T15:44:24.275Z,24.90
2022-08-20T15:49:15.231Z,25.10
2022-08-20T15:54:06.274Z,24.90
2022-08-20T15:58:57.463Z,25.00
2022-08-20T16:03:48.405Z,25.10
2022-08-20T16:08:39.511Z,25.20
2022-08-20T16:13:32.716Z,25.20
2022-08-20T16:18:21.430Z,26.80
2022-08-20T16:23:12.465Z,25.70
2022-08-20T16:28:03.836Z,25.90
2022-08-20T16:32:54.640Z,26.10
2022-08-20T16:37:45.971Z,25.60
2022-08-20T16:42:37.088Z,25.10
2022-08-20T16:47:28.060Z,25.10
2022-08-20T16:52:19.128Z,25.10
2022-08-20T16:57:17.625Z,26.20
2022-08-20T17:02:10.884Z,24.60
2022-08-20T17:06:53.123Z,24.60
2022-08-20T17:11:43.101Z,24.30
2022-08-20T17:16:34.152Z,24.30
2022-08-20T17:21:25.655Z,24.30
2022-08-20T17:26:16.299Z,24.50
2022-08-20T17:31:07.740Z,24.80
2022-08-20T17:35:58.817Z,26.10
2022-08-20T17:40:49.505Z,26.90
2022-08-20T17:45:40.544Z,27.30
2022-08-20T17:50:32.012Z,26.90
2022-08-20T17:55:23.062Z,26.20
2022-08-20T17:56:13.127Z,26.70
2022-08-20T18:01:14.963Z,26.80
2022-08-20T18:05:55.851Z,26.40
2022-08-20T18:10:46.885Z,25.30
2022-08-20T18:15:37.866Z,24.50
2022-08-20T18:20:28.603Z,24.20
2022-08-20T18:25:19.999Z,23.80
2022-08-20T18:30:11.078Z,23.50
2022-08-20T18:32:40.874Z,23.00
2022-08-20T18:37:32.268Z,23.00
2022-08-20T18:42:23.042Z,22.80
2022-08-20T18:47:14.493Z,22.50
2022-08-20T18:52:05.485Z,22.50
2022-08-20T18:56:56.548Z,22.40
2022-08-20T19:01:47.799Z,22.20
2022-08-20T19:06:38.366Z,22.10
2022-08-20T19:11:29.428Z,22.00
2022-08-20T19:16:20.535Z,21.90
2022-08-20T19:21:16.395Z,21.80
2022-08-20T19:26:02.917Z,21.70
2022-08-20T19:30:53.952Z,21.50
2022-08-20T19:35:44.756Z,21.40
2022-08-20T19:40:46.457Z,21.40
2022-08-20T19:45:26.892Z,21.30
2022-08-20T19:50:18.232Z,21.10
2022-08-20T19:55:09.285Z,21.00
2022-08-20T20:00:00.453Z,20.80
2022-08-20T20:04:58.440Z,20.60
2022-08-20T20:09:42.563Z,20.50
2022-08-20T20:14:33.277Z,20.40
2022-08-20T20:19:28.879Z,20.30
2022-08-20T20:24:15.394Z,20.00
2022-08-20T20:29:06.499Z,19.80
2022-08-20T20:33:57.517Z,19.60
2022-08-20T20:38:48.589Z,19.40
2022-08-20T20:43:39.675Z,19.40
2022-08-20T20:48:34.210Z,19.20
2022-08-20T20:53:21.772Z,19.10
2022-08-20T20:58:12.825Z,18.90
2022-08-20T21:03:04.885Z,18.80
2022-08-20T21:07:55.362Z,18.70
2022-08-20T21:12:53.559Z,18.50
2022-08-20T21:17:37.089Z,18.40
2022-08-20T21:22:28.166Z,18.30
2022-08-20T21:27:19.546Z,18.20
2022-08-20T21:32:15.487Z,18.10
2022-08-20T21:37:01.632Z,18.10
2022-08-20T21:41:55.145Z,18.10
2022-08-20T21:46:43.837Z,18.00
2022-08-20T21:51:34.799Z,18.00
2022-08-20T21:56:25.765Z,18.10
2022-08-20T22:01:17.165Z,18.00
2022-08-20T22:06:08.172Z,17.90
2022-08-20T22:10:59.154Z,17.70
2022-08-20T22:15:50.150Z,17.60
2022-08-20T22:20:45.239Z,17.50
2022-08-20T22:25:36.336Z,17.30
2022-08-20T22:30:27.073Z,17.20
2022-08-20T22:35:18.548Z,17.10
2022-08-20T22:40:09.327Z,17.00
2022-08-20T22:45:00.556Z,17.00
2022-08-20T22:49:51.661Z,17.10
2022-08-20T22:54:45.526Z,17.10
2022-08-20T22:59:53.546Z,17.10
2022-08-20T23:04:24.574Z,17.10
2022-08-20T23:09:21.465Z,17.10
2022-08-20T23:14:06.921Z,17.10
2022-08-20T23:18:58.164Z,17.00
2022-08-20T23:23:48.787Z,17.00
2022-08-20T23:28:39.826Z,17.00
2022-08-20T23:33:31.181Z,16.80
2022-08-20T23:38:22.156Z,15.10
2022-08-20T23:43:13.337Z,16.70
2022-08-20T23:48:04.423Z,16.60
2022-08-20T23:52:55.559Z,16.50
2022-08-20T23:57:46.627Z,16.40
